createdAt,value
2019-02-23T00:02:27.284Z,8.88
2019-02-23T00:06:32.014Z,10.38
2019-02-23T00:10:36.862Z,11.15
2019-02-23T00:14:41.841Z,10.95
2019-02-23T00:18:46.658Z,10.63
2019-02-23T00:22:51.700Z,9.78
2019-02-23T00:26:56.443Z,9.15
2019-02-23T00:31:01.459Z,10.32
2019-02-23T00:35:06.587Z,9.25
2019-02-23T00:39:11.456Z,10.18
2019-02-23T00:43:16.555Z,9.03
2019-02-23T00:47:21.303Z,8.43
2019-02-23T00:51:26.195Z,9.58
2019-02-23T00:55:31.011Z,10.20
2019-02-23T00:59:35.860Z,8.38
2019-02-23T01:03:40.748Z,8.28
2019-02-23T01:07:45.885Z,8.63
2019-02-23T01:11:50.695Z,8.35
2019-02-23T01:15:55.436Z,8.53
2019-02-23T01:20:00.407Z,8.73
2019-02-23T01:24:05.300Z,8.85
2019-02-23T01:28:10.161Z,8.15
2019-02-23T01:32:15.340Z,9.85
2019-02-23T01:36:20.224Z,9.10
2019-02-23T01:40:25.285Z,9.75
2019-02-23T01:44:30.200Z,8.95
2019-02-23T01:48:35.093Z,9.75
2019-02-23T01:52:40.566Z,10.08
2019-02-23T01:56:45.519Z,10.25
2019-02-23T02:00:50.486Z,10.10
2019-02-23T02:04:56.504Z,9.93
2019-02-23T02:09:01.342Z,8.45
2019-02-23T02:13:07.984Z,10.05
2019-02-23T02:17:13.165Z,10.68
2019-02-23T02:21:18.295Z,11.35
2019-02-23T02:25:23.126Z,9.50
2019-02-23T02:29:27.871Z,10.53
2019-02-23T02:33:32.776Z,11.85
2019-02-23T02:37:37.570Z,13.08
2019-02-23T02:41:42.585Z,11.35
2019-02-23T02:45:47.404Z,13.40
2019-02-23T02:49:56.452Z,12.53
2019-02-23T02:54:01.267Z,12.00
2019-02-23T02:58:06.090Z,13.93
2019-02-23T03:02:11.081Z,14.15
2019-02-23T03:06:16.033Z,13.05
2019-02-23T03:10:21.049Z,13.43
2019-02-23T03:14:25.942Z,13.90
2019-02-23T03:18:30.756Z,14.07
2019-02-23T03:22:35.799Z,13.18
2019-02-23T03:26:40.543Z,12.78
2019-02-23T03:30:45.397Z,14.70
2019-02-23T03:34:50.376Z,14.05
2019-02-23T03:38:55.121Z,15.18
2019-02-23T03:42:59.988Z,15.70
2019-02-23T03:47:04.879Z,14.95
2019-02-23T03:51:09.996Z,13.72
2019-02-23T03:55:14.816Z,15.32
2019-02-23T03:59:19.569Z,14.60
2019-02-23T04:03:24.399Z,15.88
2019-02-23T04:07:29.203Z,17.25
2019-02-23T04:11:34.183Z,16.00
2019-02-23T04:15:41.254Z,16.85
2019-02-23T04:19:46.394Z,15.18
2019-02-23T04:23:51.489Z,15.23
2019-02-23T04:27:57.352Z,15.10
2019-02-23T04:32:02.399Z,14.70
2019-02-23T04:36:07.208Z,14.05
2019-02-23T04:40:12.382Z,14.30
2019-02-23T04:44:17.146Z,13.58
2019-02-23T04:48:21.950Z,13.35
2019-02-23T04:52:26.984Z,12.73
2019-02-23T04:56:31.807Z,10.68
2019-02-23T05:00:37.040Z,11.12
2019-02-23T05:04:41.889Z,10.18
2019-02-23T05:08:46.611Z,9.98
2019-02-23T05:12:51.700Z,9.65
2019-02-23T05:16:56.561Z,11.73
2019-02-23T05:21:01.607Z,11.03
2019-02-23T05:25:06.424Z,11.28
2019-02-23T05:29:11.245Z,10.28
2019-02-23T05:33:16.213Z,9.73
2019-02-23T05:37:21.146Z,10.70
2019-02-23T05:41:26.224Z,9.38
2019-02-23T05:45:31.128Z,10.88
2019-02-23T05:49:37.305Z,10.30
2019-02-23T05:53:42.219Z,9.53
2019-02-23T05:57:47.042Z,9.35
2019-02-23T06:01:52.015Z,8.50
2019-02-23T06:05:56.911Z,8.35
2019-02-23T06:10:01.937Z,8.95
2019-02-23T06:14:07.017Z,8.95
2019-02-23T06:18:11.897Z,8.13
2019-02-23T06:22:17.149Z,8.08
2019-02-23T06:26:22.024Z,8.28
2019-02-23T06:30:27.058Z,8.33
2019-02-23T06:34:31.969Z,8.38
2019-02-23T06:38:36.791Z,7.47
2019-02-23T06:42:41.996Z,7.35
2019-02-23T06:46:46.904Z,7.92
2019-02-23T06:50:51.960Z,7.90
2019-02-23T06:54:58.433Z,6.90
2019-02-23T06:59:03.560Z,8.00
2019-02-23T07:03:08.901Z,6.90
2019-02-23T07:07:13.803Z,8.08
2019-02-23T07:11:18.738Z,7.35
2019-02-23T07:15:23.633Z,7.08
2019-02-23T07:19:28.627Z,7.50
2019-02-23T07:23:33.379Z,8.50
2019-02-23T07:27:38.276Z,8.13
2019-02-23T07:31:43.344Z,7.58
2019-02-23T07:35:48.085Z,6.15
2019-02-23T07:39:52.991Z,6.67
2019-02-23T07:43:57.841Z,7.00
2019-02-23T07:48:02.677Z,7.08
2019-02-23T07:52:07.937Z,6.62
2019-02-23T07:56:13.085Z,7.00
2019-02-23T08:00:18.227Z,6.95
2019-02-23T08:04:23.062Z,6.47
2019-02-23T08:08:28.076Z,6.28
2019-02-23T08:12:33.495Z,6.20
2019-02-23T08:16:38.349Z,7.05
2019-02-23T08:20:43.291Z,6.55
2019-02-23T08:24:59.203Z,5.83
2019-02-23T08:29:04.164Z,6.90
2019-02-23T08:33:09.617Z,5.92
2019-02-23T08:37:14.458Z,5.83
2019-02-23T08:41:19.492Z,5.85
2019-02-23T08:45:24.348Z,6.35
2019-02-23T08:49:30.429Z,6.28
2019-02-23T08:53:35.815Z,5.58
2019-02-23T08:57:40.719Z,5.60
2019-02-23T09:01:45.655Z,5.33
2019-02-23T09:05:50.407Z,4.70
2019-02-23T09:09:55.328Z,4.72
2019-02-23T09:14:00.074Z,4.60
2019-02-23T09:18:04.824Z,4.50
2019-02-23T09:22:09.879Z,4.67
2019-02-23T09:26:15.006Z,4.22
2019-02-23T09:30:20.081Z,3.87
2019-02-23T09:34:24.981Z,3.85
2019-02-23T09:38:29.895Z,3.92
2019-02-23T09:42:35.388Z,3.65
2019-02-23T09:46:40.276Z,3.10
2019-02-23T09:50:45.188Z,4.22
2019-02-23T09:54:49.999Z,4.37
2019-02-23T09:58:54.944Z,4.55
2019-02-23T10:03:00.130Z,4.00
2019-02-23T10:07:05.163Z,3.72
2019-02-23T10:11:10.199Z,3.62
2019-02-23T10:15:15.264Z,4.10
2019-02-23T10:19:20.088Z,3.27
2019-02-23T10:23:24.996Z,3.70
2019-02-23T10:27:29.967Z,3.60
2019-02-23T10:31:34.903Z,3.90
2019-02-23T10:35:39.788Z,4.55
2019-02-23T10:39:44.923Z,4.75
2019-02-23T10:43:49.837Z,5.05
2019-02-23T10:47:54.656Z,4.55
2019-02-23T10:51:59.760Z,5.10
2019-02-23T10:56:04.650Z,4.65
2019-02-23T11:00:15.612Z,5.12
2019-02-23T11:04:20.502Z,5.33
2019-02-23T11:08:26.288Z,5.55
2019-02-23T11:12:31.233Z,5.30
2019-02-23T11:16:36.027Z,5.53
2019-02-23T11:20:41.013Z,5.12
2019-02-23T11:24:45.895Z,5.22
2019-02-23T11:28:50.792Z,5.15
2019-02-23T11:32:55.861Z,5.45
2019-02-23T11:37:00.730Z,5.20
2019-02-23T11:41:08.607Z,5.37
2019-02-23T11:45:13.452Z,5.72
2019-02-23T11:49:18.352Z,4.80
2019-02-23T11:53:23.093Z,4.60
2019-02-23T11:57:27.983Z,3.92
2019-02-23T12:01:32.881Z,4.08
2019-02-23T12:05:37.697Z,4.60
2019-02-23T12:09:42.716Z,4.78
2019-02-23T12:13:47.620Z,4.95
2019-02-23T12:17:52.560Z,5.03
2019-02-23T12:21:57.908Z,5.15
2019-02-23T12:26:03.129Z,5.60
2019-02-23T12:30:08.327Z,5.47
2019-02-23T12:34:13.152Z,4.90
2019-02-23T12:38:18.192Z,5.15
2019-02-23T12:42:23.401Z,5.70
2019-02-23T12:46:28.319Z,5.50
2019-02-23T12:50:33.525Z,5.35
2019-02-23T12:54:38.800Z,5.28
2019-02-23T12:58:43.760Z,5.55
2019-02-23T13:02:48.684Z,5.60
2019-02-23T13:06:53.512Z,5.90
2019-02-23T13:10:59.748Z,6.22
2019-02-23T13:15:08.826Z,5.78
2019-02-23T13:19:49.940Z,5.45
2019-02-23T13:24:28.648Z,5.28
2019-02-23T13:28:57.522Z,5.92
2019-02-23T13:33:43.728Z,5.25
2019-02-23T13:38:07.904Z,5.55
2019-02-23T13:42:51.837Z,6.15
2019-02-23T13:47:21.873Z,6.58
2019-02-23T13:52:04.040Z,5.30
2019-02-23T13:56:47.759Z,6.15
2019-02-23T14:01:32.928Z,4.65
2019-02-23T14:06:10.247Z,5.85
2019-02-23T14:10:48.156Z,5.58
2019-02-23T14:15:24.720Z,4.67
2019-02-23T14:20:00.419Z,5.30
2019-02-23T14:24:57.363Z,4.97
2019-02-23T14:29:49.642Z,5.08
2019-02-23T14:34:33.409Z,4.80
2019-02-23T14:39:13.080Z,4.92
2019-02-23T14:44:09.212Z,4.40
2019-02-23T14:48:43.429Z,4.97
2019-02-23T14:53:02.043Z,4.42
2019-02-23T14:57:46.831Z,4.50
2019-02-23T15:02:32.743Z,4.20
2019-02-23T15:07:17.206Z,4.75
2019-02-23T15:11:48.692Z,5.37
2019-02-23T15:16:17.413Z,4.43
2019-02-23T15:21:23.944Z,3.80
2019-02-23T15:26:22.315Z,3.60
2019-02-23T15:30:40.649Z,3.30
2019-02-23T15:35:04.205Z,3.87
2019-02-23T15:39:47.497Z,3.08
2019-02-23T15:44:22.096Z,3.77
2019-02-23T15:48:56.573Z,3.40
2019-02-23T15:53:01.439Z,3.37
2019-02-23T15:57:06.719Z,2.90
2019-02-23T16:01:11.691Z,3.40
2019-02-23T16:05:16.510Z,3.47
2019-02-23T16:09:21.513Z,3.00
2019-02-23T16:13:26.402Z,2.83
2019-02-23T16:17:31.358Z,4.03
2019-02-23T16:21:36.520Z,3.33
2019-02-23T16:25:41.416Z,2.83
2019-02-23T16:29:46.499Z,3.17
2019-02-23T16:33:51.345Z,2.40
2019-02-23T16:37:56.464Z,2.30
2019-02-23T16:42:01.619Z,2.58
2019-02-23T16:46:06.527Z,2.15
2019-02-23T16:50:11.990Z,3.85
2019-02-23T16:54:16.900Z,3.27
2019-02-23T16:58:21.719Z,2.47
2019-02-23T17:02:29.207Z,2.62
2019-02-23T17:06:35.005Z,2.30
2019-02-23T17:10:40.125Z,2.00
2019-02-23T17:14:44.998Z,2.30
2019-02-23T17:18:49.833Z,2.22
2019-02-23T17:22:54.887Z,2.37
2019-02-23T17:26:59.713Z,2.70
2019-02-23T17:31:04.566Z,2.52
2019-02-23T17:35:09.939Z,2.98
2019-02-23T17:39:14.687Z,3.30
2019-02-23T17:43:19.871Z,3.52
2019-02-23T17:47:24.699Z,3.62
2019-02-23T17:51:30.220Z,3.10
2019-02-23T17:55:35.103Z,5.53
2019-02-23T17:59:40.075Z,4.80
2019-02-23T18:03:44.896Z,4.22
2019-02-23T18:07:49.792Z,4.78
2019-02-23T18:11:54.792Z,3.85
2019-02-23T18:15:59.548Z,3.58
2019-02-23T18:20:04.823Z,4.60
2019-02-23T18:24:09.644Z,4.33
2019-02-23T18:28:16.717Z,6.17
2019-02-23T18:32:21.621Z,4.78
2019-02-23T18:36:26.543Z,4.37
2019-02-23T18:40:32.681Z,3.83
2019-02-23T18:44:37.871Z,2.87
2019-02-23T18:48:42.766Z,3.37
2019-02-23T18:52:47.598Z,3.10
2019-02-23T18:56:52.529Z,3.45
2019-02-23T19:00:58.055Z,3.47
2019-02-23T19:05:03.555Z,2.72
2019-02-23T19:09:08.854Z,2.87
2019-02-23T19:13:15.412Z,2.40
2019-02-23T19:17:20.316Z,2.20
2019-02-23T19:21:25.458Z,2.85
2019-02-23T19:25:30.343Z,1.72
2019-02-23T19:29:35.383Z,2.33
2019-02-23T19:33:40.412Z,2.02
2019-02-23T19:37:45.167Z,2.00
2019-02-23T19:41:50.483Z,2.50
2019-02-23T19:45:55.228Z,2.50
2019-02-23T19:50:05.539Z,2.85
2019-02-23T19:54:10.448Z,2.80
2019-02-23T19:58:15.209Z,3.08
2019-02-23T20:02:20.328Z,3.15
2019-02-23T20:06:25.204Z,3.52
2019-02-23T20:10:31.161Z,2.98
2019-02-23T20:14:42.167Z,3.50
2019-02-23T20:18:47.002Z,3.90
2019-02-23T20:22:53.057Z,3.37
2019-02-23T20:26:57.944Z,4.55
2019-02-23T20:31:02.865Z,7.28
2019-02-23T20:35:07.979Z,7.90
2019-02-23T20:39:12.739Z,8.85
2019-02-23T20:43:17.764Z,7.85
2019-02-23T20:47:22.516Z,7.85
2019-02-23T20:51:27.585Z,6.85
2019-02-23T20:55:32.436Z,6.10
2019-02-23T20:59:37.538Z,5.90
2019-02-23T21:03:42.447Z,5.58
2019-02-23T21:07:47.285Z,5.92
2019-02-23T21:11:53.220Z,5.10
2019-02-23T21:15:58.049Z,5.37
2019-02-23T21:20:03.048Z,7.50
2019-02-23T21:24:09.135Z,6.92
2019-02-23T21:28:14.032Z,4.75
2019-02-23T21:32:18.999Z,5.97
2019-02-23T21:36:23.824Z,5.70
2019-02-23T21:40:28.812Z,4.47
2019-02-23T21:44:33.587Z,3.70
2019-02-23T21:48:38.607Z,3.70
2019-02-23T21:52:43.592Z,3.70
2019-02-23T21:56:48.704Z,5.90
2019-02-23T22:00:54.730Z,3.62
2019-02-23T22:04:59.522Z,3.45
2019-02-23T22:09:05.202Z,3.15
2019-02-23T22:13:11.644Z,3.47
2019-02-23T22:17:16.389Z,3.27
2019-02-23T22:21:21.284Z,3.12
2019-02-23T22:25:26.129Z,3.15
2019-02-23T22:29:33.588Z,3.52
2019-02-23T22:33:38.395Z,3.47
2019-02-23T22:37:43.236Z,3.80
2019-02-23T22:41:49.934Z,3.00
2019-02-23T22:45:55.068Z,3.40
2019-02-23T22:50:00.259Z,3.77
2019-02-23T22:54:05.313Z,3.60
2019-02-23T22:58:10.216Z,3.70
2019-02-23T23:02:15.666Z,3.80
2019-02-23T23:06:20.724Z,5.50
2019-02-23T23:10:25.701Z,5.90
2019-02-23T23:14:30.589Z,3.05
2019-02-23T23:18:35.415Z,3.75
2019-02-23T23:22:40.464Z,3.70
2019-02-23T23:26:45.358Z,3.77
2019-02-23T23:30:50.513Z,3.25
2019-02-23T23:34:55.400Z,3.40
2019-02-23T23:39:00.307Z,5.15
2019-02-23T23:43:05.335Z,4.47
2019-02-23T23:47:10.231Z,3.30
2019-02-23T23:51:16.088Z,3.75
2019-02-23T23:55:20.922Z,2.77
2019-02-23T23:59:25.870Z,3.30
